Time;durP1;ratioP1;P1;durP2;ratioP2;P2;SDS_P1;SDS_P2;PMS_P1;PMS_P2;Temp;Humidity;BMP_temperature;BMP_pressure;BME280_temperature;BME280_humidity;BME280_pressure;Samples;Min_cycle;Max_cycle;Signal;HPM_P1;HPM_P2
2023/09/15 00:01:02;;;;;;;0.17;0.17;;;;;;;;;;4981391;28;20127;-72
2023/09/15 00:03:29;;;;;;;0.55;0.55;;;;;;;;;;4978847;28;20042;-72
2023/09/15 00:05:57;;;;;;;0.20;0.20;;;;;;;;;;4981702;28;20170;-72
2023/09/15 00:08:24;;;;;;;39.75;37.17;;;;;;;;;;4973502;28;20058;-72
2023/09/15 00:10:52;;;;;;;8.40;7.93;;;;;;;;;;4983142;28;20073;-71
2023/09/15 00:13:19;;;;;;;6.68;6.35;;;;;;;;;;4984427;28;20119;-72
2023/09/15 00:15:51;;;;;;;0.30;0.30;;;;;;;;;;4983978;28;20142;-72
2023/09/15 00:18:19;;;;;;;0.00;0.00;;;;;;;;;;4975639;28;20062;-72
2023/09/15 00:20:46;;;;;;;0.40;0.40;;;;;;;;;;4972045;28;20061;-71
2023/09/15 00:23:14;;;;;;;0.00;0.00;;;;;;;;;;4985818;28;20093;-73
2023/09/15 00:25:44;;;;;;;0.20;0.20;;;;;;;;;;4982903;28;20047;-72
2023/09/15 00:28:13;;;;;;;0.10;0.10;;;;;;;;;;4980788;28;20046;-72
2023/09/15 00:30:40;;;;;;;0.10;0.10;;;;;;;;;;4983907;28;20058;-72
2023/09/15 00:33:08;;;;;;;1.73;1.73;;;;;;;;;;4995397;28;20109;-72
2023/09/15 00:35:36;;;;;;;0.10;0.10;;;;;;;;;;4983622;28;20077;-72
2023/09/15 00:38:04;;;;;;;0.28;0.28;;;;;;;;;;4983635;28;20683;-72
2023/09/15 00:40:31;;;;;;;0.10;0.10;;;;;;;;;;4990471;28;20504;-72
2023/09/15 00:42:58;;;;;;;0.10;0.10;;;;;;;;;;5007833;22;20053;-78
2023/09/15 00:45:26;;;;;;;0.00;0.00;;;;;;;;;;5025000;28;20112;-77
2023/09/15 00:47:56;;;;;;;0.00;0.00;;;;;;;;;;5025086;28;20053;-77
2023/09/15 00:50:29;;;;;;;0.20;0.20;;;;;;;;;;5023699;28;20049;-78
2023/09/15 00:52:59;;;;;;;0.47;0.47;;;;;;;;;;5026118;28;20049;-78
2023/09/15 00:55:29;;;;;;;0.00;0.00;;;;;;;;;;5024605;28;20049;-77
2023/09/15 00:57:57;;;;;;;0.00;0.00;;;;;;;;;;5026607;28;20581;-78
2023/09/15 01:00:26;;;;;;;0.00;0.00;;;;;;;;;;5026742;28;20546;-77
2023/09/15 01:02:53;;;;;;;0.08;0.08;;;;;;;;;;5040575;28;20511;-77
2023/09/15 01:05:23;;;;;;;0.10;0.10;;;;;;;;;;5026402;28;20045;-77
2023/09/15 01:07:52;;;;;;;0.00;0.00;;;;;;;;;;5025139;28;20567;-78
2023/09/15 01:10:21;;;;;;;0.20;0.20;;;;;;;;;;5024304;28;20052;-78
2023/09/15 01:12:50;;;;;;;0.75;0.75;;;;;;;;;;5026249;28;20088;-77
2023/09/15 01:15:18;;;;;;;7.80;1.95;;;;;;;;;;5025325;28;20519;-78
2023/09/15 01:17:56;;;;;;;0.10;0.10;;;;;;;;;;5023738;28;20037;-77
2023/09/15 01:20:42;;;;;;;22.75;21.00;;;;;;;;;;5020959;28;20045;-77
2023/09/15 01:23:09;;;;;;;0.00;0.00;;;;;;;;;;5024968;28;20042;-78
2023/09/15 01:25:39;;;;;;;0.82;0.82;;;;;;;;;;5025601;28;20072;-77
2023/09/15 01:28:09;;;;;;;0.00;0.00;;;;;;;;;;5025103;28;20056;-77
2023/09/15 01:30:37;;;;;;;0.00;0.00;;;;;;;;;;5022951;28;20089;-77
2023/09/15 01:33:06;;;;;;;0.00;0.00;;;;;;;;;;5025312;28;20170;-77
2023/09/15 01:35:34;;;;;;;0.00;0.00;;;;;;;;;;5024387;28;20065;-77
2023/09/15 01:38:03;;;;;;;0.00;0.00;;;;;;;;;;5026057;28;20049;-77
2023/09/15 01:40:31;;;;;;;0.00;0.00;;;;;;;;;;5008111;28;20061;-77
2023/09/15 01:42:59;;;;;;;0.00;0.00;;;;;;;;;;5022494;28;20053;-77
2023/09/15 01:45:26;;;;;;;0.30;0.30;;;;;;;;;;5026741;28;20053;-78
2023/09/15 01:47:55;;;;;;;0.25;0.25;;;;;;;;;;5044360;28;20081;-78
2023/09/15 01:50:23;;;;;;;0.00;0.00;;;;;;;;;;5023590;28;20124;-78
2023/09/15 01:52:50;;;;;;;0.38;0.38;;;;;;;;;;5023502;28;20554;-77
2023/09/15 01:55:18;;;;;;;0.20;0.10;;;;;;;;;;5025257;28;20461;-78
2023/09/15 01:57:46;;;;;;;0.22;0.22;;;;;;;;;;5020625;28;20049;-78
2023/09/15 02:00:14;;;;;;;0.00;0.00;;;;;;;;;;5020984;28;20057;-78
2023/09/15 02:02:42;;;;;;;0.10;0.10;;;;;;;;;;5024670;28;20068;-77
2023/09/15 02:05:22;;;;;;;0.00;0.00;;;;;;;;;;5026624;28;20045;-78
2023/09/15 02:07:50;;;;;;;0.00;0.00;;;;;;;;;;5024534;28;20049;-77
2023/09/15 02:10:18;;;;;;;0.00;0.00;;;;;;;;;;5024468;28;20099;-78
2023/09/15 02:12:46;;;;;;;0.00;0.00;;;;;;;;;;5040208;28;20053;-77
2023/09/15 02:15:14;;;;;;;0.00;0.00;;;;;;;;;;5023265;28;20136;-77
2023/09/15 02:17:42;;;;;;;0.00;0.00;;;;;;;;;;5036407;28;20049;-77
2023/09/15 02:20:14;;;;;;;0.00;0.00;;;;;;;;;;5025723;28;20057;-77
2023/09/15 02:22:43;;;;;;;0.40;0.10;;;;;;;;;;5020973;28;20447;-78
2023/09/15 02:25:10;;;;;;;0.10;0.10;;;;;;;;;;5025364;28;20149;-77
2023/09/15 02:27:38;;;;;;;31.02;0.98;;;;;;;;;;5025646;28;20037;-77
2023/09/15 02:30:06;;;;;;;0.00;0.00;;;;;;;;;;5025307;28;20052;-78
2023/09/15 02:32:34;;;;;;;0.00;0.00;;;;;;;;;;5025031;28;20379;-77
2023/09/15 02:35:02;;;;;;;1.00;0.85;;;;;;;;;;5026380;28;20042;-77
2023/09/15 02:37:30;;;;;;;0.00;0.00;;;;;;;;;;5025121;28;20454;-77
2023/09/15 02:39:58;;;;;;;0.00;0.00;;;;;;;;;;5026250;28;20045;-77
2023/09/15 02:42:26;;;;;;;0.08;0.08;;;;;;;;;;5027870;28;20502;-77
2023/09/15 02:44:53;;;;;;;0.00;0.00;;;;;;;;;;5029488;28;20107;-77
2023/09/15 02:47:21;;;;;;;0.20;0.20;;;;;;;;;;5029828;28;20063;-77
2023/09/15 02:49:48;;;;;;;0.00;0.00;;;;;;;;;;5026510;28;20487;-78
2023/09/15 02:52:16;;;;;;;0.38;0.38;;;;;;;;;;5027091;28;20503;-77
2023/09/15 02:54:43;;;;;;;0.00;0.00;;;;;;;;;;5029069;28;20045;-76
2023/09/15 02:57:11;;;;;;;0.00;0.00;;;;;;;;;;5027613;28;20075;-76
2023/09/15 02:59:38;;;;;;;0.00;0.00;;;;;;;;;;5025916;28;20049;-76
2023/09/15 03:02:12;;;;;;;0.03;0.03;;;;;;;;;;5027134;28;20435;-76
2023/09/15 03:04:45;;;;;;;0.00;0.00;;;;;;;;;;5042153;28;20454;-76
2023/09/15 03:07:13;;;;;;;0.10;0.10;;;;;;;;;;5028655;28;20406;-76
2023/09/15 03:09:40;;;;;;;0.00;0.00;;;;;;;;;;5027157;28;20100;-76
2023/09/15 03:12:08;;;;;;;0.00;0.00;;;;;;;;;;5027194;28;20060;-76
2023/09/15 03:14:36;;;;;;;0.00;0.00;;;;;;;;;;5027118;28;20095;-76
2023/09/15 03:17:05;;;;;;;0.00;0.00;;;;;;;;;;5041356;28;20041;-76
2023/09/15 03:19:33;;;;;;;0.00;0.00;;;;;;;;;;5042044;28;20060;-76
2023/09/15 03:22:00;;;;;;;0.00;0.00;;;;;;;;;;5027186;28;20053;-76
2023/09/15 03:24:29;;;;;;;0.00;0.00;;;;;;;;;;5026848;28;20068;-76
2023/09/15 03:26:57;;;;;;;0.10;0.10;;;;;;;;;;5025866;28;20041;-76
2023/09/15 03:29:24;;;;;;;0.00;0.00;;;;;;;;;;5027836;28;20037;-76
2023/09/15 03:31:52;;;;;;;0.00;0.00;;;;;;;;;;5030555;28;20088;-76
2023/09/15 03:34:19;;;;;;;0.00;0.00;;;;;;;;;;5029667;28;20053;-76
2023/09/15 03:36:48;;;;;;;0.00;0.00;;;;;;;;;;5026021;28;20057;-76
2023/09/15 03:39:17;;;;;;;0.70;0.70;;;;;;;;;;5023933;28;20045;-76
2023/09/15 03:41:44;;;;;;;0.00;0.00;;;;;;;;;;5027257;28;20434;-76
2023/09/15 03:44:12;;;;;;;0.00;0.00;;;;;;;;;;5027970;28;20044;-76
2023/09/15 03:46:40;;;;;;;0.15;0.15;;;;;;;;;;5025436;28;20084;-76
2023/09/15 03:49:08;;;;;;;0.00;0.00;;;;;;;;;;5023937;28;20119;-76
2023/09/15 03:51:35;;;;;;;0.00;0.00;;;;;;;;;;5040826;28;20050;-77
2023/09/15 03:54:03;;;;;;;0.00;0.00;;;;;;;;;;5027123;28;20112;-76
2023/09/15 03:56:31;;;;;;;0.00;0.00;;;;;;;;;;5042090;28;20052;-76
2023/09/15 03:58:59;;;;;;;0.57;0.57;;;;;;;;;;5025969;28;20065;-76
2023/09/15 04:01:26;;;;;;;0.40;0.40;;;;;;;;;;5027927;28;20055;-76
2023/09/15 04:03:54;;;;;;;0.00;0.00;;;;;;;;;;5027797;28;20045;-76
2023/09/15 04:06:23;;;;;;;0.00;0.00;;;;;;;;;;5026702;28;20053;-76
2023/09/15 04:08:51;;;;;;;0.00;0.00;;;;;;;;;;5025444;28;20033;-75
2023/09/15 04:11:18;;;;;;;0.13;0.10;;;;;;;;;;5026185;28;20038;-76
2023/09/15 04:13:45;;;;;;;0.10;0.10;;;;;;;;;;5026149;28;20049;-77
2023/09/15 04:16:13;;;;;;;0.20;0.20;;;;;;;;;;5025210;28;20057;-76
2023/09/15 04:18:41;;;;;;;0.00;0.00;;;;;;;;;;5040838;28;20103;-76
2023/09/15 04:21:09;;;;;;;0.00;0.00;;;;;;;;;;5025498;28;20045;-75
2023/09/15 04:23:36;;;;;;;14.35;13.18;;;;;;;;;;5025715;28;20048;-76
2023/09/15 04:26:05;;;;;;;0.45;0.38;;;;;;;;;;5024918;28;20426;-76
2023/09/15 04:28:34;;;;;;;0.15;0.15;;;;;;;;;;5041656;28;20042;-76
2023/09/15 04:31:03;;;;;;;7.50;6.80;;;;;;;;;;5041810;28;20140;-76
2023/09/15 04:33:30;;;;;;;0.20;0.20;;;;;;;;;;5025221;28;20124;-76
2023/09/15 04:35:57;;;;;;;0.00;0.00;;;;;;;;;;5024931;28;20045;-76
2023/09/15 04:38:25;;;;;;;0.25;0.25;;;;;;;;;;5041574;28;20048;-75
2023/09/15 04:40:53;;;;;;;0.47;0.35;;;;;;;;;;5042097;28;20069;-77
2023/09/15 04:43:21;;;;;;;0.10;0.10;;;;;;;;;;5041545;28;20133;-76
2023/09/15 04:45:49;;;;;;;0.00;0.00;;;;;;;;;;5024852;28;20049;-77
2023/09/15 04:48:17;;;;;;;0.08;0.08;;;;;;;;;;5024665;28;20045;-77
2023/09/15 04:50:45;;;;;;;0.52;0.52;;;;;;;;;;5027565;28;20049;-76
2023/09/15 04:53:12;;;;;;;2.88;2.65;;;;;;;;;;5026089;28;20477;-76
2023/09/15 04:55:42;;;;;;;0.00;0.00;;;;;;;;;;5040567;28;20044;-77
2023/09/15 04:58:11;;;;;;;0.00;0.00;;;;;;;;;;5025341;28;20045;-76
2023/09/15 05:00:40;;;;;;;0.00;0.00;;;;;;;;;;5041480;28;20466;-77
2023/09/15 05:03:08;;;;;;;2.38;0.75;;;;;;;;;;5026875;28;20044;-77
2023/09/15 05:05:36;;;;;;;1.65;1.38;;;;;;;;;;5019971;28;20080;-77
2023/09/15 05:08:04;;;;;;;0.47;0.47;;;;;;;;;;5022932;28;20045;-77
2023/09/15 05:10:31;;;;;;;0.73;0.73;;;;;;;;;;5023759;28;20061;-76
2023/09/15 05:13:00;;;;;;;11.75;10.63;;;;;;;;;;5026447;28;20143;-76
2023/09/15 05:15:29;;;;;;;0.00;0.00;;;;;;;;;;5024772;28;20045;-76
2023/09/15 05:17:57;;;;;;;0.10;0.10;;;;;;;;;;5025198;28;20561;-77
2023/09/15 05:20:26;;;;;;;0.65;0.65;;;;;;;;;;5042241;28;20112;-76
2023/09/15 05:22:53;;;;;;;0.17;0.17;;;;;;;;;;5023701;28;20064;-77
2023/09/15 05:25:20;;;;;;;0.38;0.38;;;;;;;;;;5023642;28;20112;-78
2023/09/15 05:27:49;;;;;;;0.25;0.20;;;;;;;;;;5023658;28;20041;-78
2023/09/15 05:30:16;;;;;;;0.00;0.00;;;;;;;;;;5019663;28;20037;-76
2023/09/15 05:32:44;;;;;;;0.10;0.10;;;;;;;;;;5023408;28;20495;-78
2023/09/15 05:35:11;;;;;;;0.00;0.00;;;;;;;;;;5038283;28;20103;-77
2023/09/15 05:37:39;;;;;;;0.10;0.10;;;;;;;;;;5023917;28;20076;-78
2023/09/15 05:40:07;;;;;;;0.30;0.30;;;;;;;;;;5022943;28;20085;-76
2023/09/15 05:42:35;;;;;;;0.30;0.30;;;;;;;;;;5023401;28;20057;-76
2023/09/15 05:45:03;;;;;;;0.38;0.15;;;;;;;;;;5023848;28;20503;-76
2023/09/15 05:47:31;;;;;;;0.00;0.00;;;;;;;;;;5020823;28;20128;-77
2023/09/15 05:50:00;;;;;;;0.32;0.32;;;;;;;;;;5021699;28;20407;-76
2023/09/15 05:52:28;;;;;;;0.57;0.57;;;;;;;;;;5019703;28;20049;-78
2023/09/15 05:54:56;;;;;;;0.00;0.00;;;;;;;;;;5024152;28;20088;-76
2023/09/15 05:57:23;;;;;;;0.00;0.00;;;;;;;;;;5025569;28;20041;-77
2023/09/15 05:59:51;;;;;;;0.08;0.08;;;;;;;;;;5021809;28;20053;-76
2023/09/15 06:02:20;;;;;;;0.28;0.28;;;;;;;;;;5022934;28;20064;-77
2023/09/15 06:04:49;;;;;;;0.05;0.05;;;;;;;;;;5025684;28;20045;-76
2023/09/15 06:07:17;;;;;;;0.10;0.10;;;;;;;;;;5023751;28;20080;-77
2023/09/15 06:09:47;;;;;;;6.85;0.43;;;;;;;;;;5023433;28;20142;-76
2023/09/15 06:12:15;;;;;;;1.10;0.75;;;;;;;;;;5019524;28;20050;-77
2023/09/15 06:14:42;;;;;;;10.07;9.23;;;;;;;;;;5016091;28;20042;-76
2023/09/15 06:17:10;;;;;;;0.10;0.10;;;;;;;;;;5019020;28;20053;-76
2023/09/15 06:19:37;;;;;;;0.10;0.10;;;;;;;;;;5024773;28;20057;-78
2023/09/15 06:22:05;;;;;;;1.65;1.65;;;;;;;;;;5023517;28;20049;-77
2023/09/15 06:24:33;;;;;;;0.13;0.13;;;;;;;;;;5026086;28;20290;-76
2023/09/15 06:27:00;;;;;;;2.55;2.35;;;;;;;;;;5024920;28;20056;-78
2023/09/15 06:29:27;;;;;;;8.55;7.88;;;;;;;;;;5022716;28;22185;-77
2023/09/15 06:31:55;;;;;;;0.50;0.50;;;;;;;;;;5024439;28;20445;-76
2023/09/15 06:34:22;;;;;;;2.72;2.63;;;;;;;;;;5023121;28;20545;-76
2023/09/15 06:36:50;;;;;;;0.20;0.20;;;;;;;;;;5018571;28;20067;-78
2023/09/15 06:39:19;;;;;;;2.65;2.55;;;;;;;;;;5018471;28;20057;-79
2023/09/15 06:41:46;;;;;;;0.00;0.00;;;;;;;;;;5023414;28;20049;-76
2023/09/15 06:44:22;;;;;;;1.13;0.52;;;;;;;;;;5021532;28;20499;-77
2023/09/15 06:46:50;;;;;;;0.20;0.20;;;;;;;;;;5028703;28;20053;-76
2023/09/15 06:49:21;;;;;;;2.05;1.95;;;;;;;;;;5028575;28;20084;-76
2023/09/15 06:51:49;;;;;;;;;;;;;;;;;;5028798;28;20045;-77
2023/09/15 06:54:16;;;;;;;0.00;0.00;;;;;;;;;;5029163;28;19925;-76
2023/09/15 06:56:44;;;;;;;0.10;0.10;;;;;;;;;;5028837;28;20049;-77
2023/09/15 06:59:11;;;;;;;0.00;0.00;;;;;;;;;;5026883;28;20167;-78
2023/09/15 07:01:39;;;;;;;0.20;0.20;;;;;;;;;;5027765;28;20553;-77
2023/09/15 07:04:07;;;;;;;0.20;0.20;;;;;;;;;;5028784;28;20531;-76
2023/09/15 07:06:34;;;;;;;0.10;0.10;;;;;;;;;;5028624;28;20041;-78
2023/09/15 07:09:02;;;;;;;0.77;0.52;;;;;;;;;;5028283;28;20049;-77
2023/09/15 07:11:31;;;;;;;0.00;0.00;;;;;;;;;;5027262;28;20041;-76
2023/09/15 07:13:58;;;;;;;0.00;0.00;;;;;;;;;;5028987;28;20076;-77
2023/09/15 07:16:26;;;;;;;2.35;2.25;;;;;;;;;;5028367;28;20511;-75
2023/09/15 07:18:53;;;;;;;0.00;0.00;;;;;;;;;;5027984;28;20955;-75
2023/09/15 07:21:21;;;;;;;0.08;0.08;;;;;;;;;;5028054;28;20045;-76
2023/09/15 07:23:48;;;;;;;0.00;0.00;;;;;;;;;;5028866;28;20050;-76
2023/09/15 07:26:16;;;;;;;0.00;0.00;;;;;;;;;;5028759;28;20045;-76
2023/09/15 07:28:43;;;;;;;0.00;0.00;;;;;;;;;;5026585;28;20044;-76
2023/09/15 07:31:11;;;;;;;0.30;0.30;;;;;;;;;;5028493;28;20073;-76
2023/09/15 07:33:39;;;;;;;0.00;0.00;;;;;;;;;;5027169;28;20077;-76
2023/09/15 07:36:06;;;;;;;0.22;0.22;;;;;;;;;;5028050;28;20046;-76
2023/09/15 07:38:33;;;;;;;0.10;0.10;;;;;;;;;;5025420;28;20136;-78
2023/09/15 07:41:01;;;;;;;0.38;0.38;;;;;;;;;;5025321;28;20099;-77
2023/09/15 07:43:28;;;;;;;0.25;0.20;;;;;;;;;;5024697;28;20037;-76
2023/09/15 07:45:56;;;;;;;7.78;7.25;;;;;;;;;;5026833;28;20136;-76
2023/09/15 07:48:23;;;;;;;0.95;0.95;;;;;;;;;;5025125;28;20492;-76
2023/09/15 07:50:51;;;;;;;0.17;0.10;;;;;;;;;;5026859;28;20046;-76
2023/09/15 07:53:20;;;;;;;0.03;0.03;;;;;;;;;;5025963;28;20494;-78
2023/09/15 07:55:47;;;;;;;0.30;0.30;;;;;;;;;;5026341;28;20045;-76
2023/09/15 07:58:15;;;;;;;0.00;0.00;;;;;;;;;;5025194;28;20393;-76
2023/09/15 08:00:42;;;;;;;0.10;0.10;;;;;;;;;;5026776;28;20041;-76
2023/09/15 08:03:10;;;;;;;0.13;0.13;;;;;;;;;;5026834;28;20053;-77
2023/09/15 08:05:37;;;;;;;1.73;1.63;;;;;;;;;;5025951;28;20072;-77
2023/09/15 08:08:05;;;;;;;0.10;0.10;;;;;;;;;;5026655;28;20049;-77
2023/09/15 08:10:32;;;;;;;0.08;0.08;;;;;;;;;;5025622;28;20045;-78
2023/09/15 08:13:00;;;;;;;0.00;0.00;;;;;;;;;;5025798;28;20061;-76
2023/09/15 08:15:27;;;;;;;4.78;1.00;;;;;;;;;;5026944;28;20045;-75
2023/09/15 08:17:55;;;;;;;6.15;5.85;;;;;;;;;;5027464;28;20124;-75
2023/09/15 08:20:26;;;;;;;0.43;0.32;;;;;;;;;;5025198;28;20196;-76
2023/09/15 08:22:54;;;;;;;0.00;0.00;;;;;;;;;;5025357;28;20072;-76
2023/09/15 08:25:21;;;;;;;1.20;0.82;;;;;;;;;;5026784;28;20466;-75
2023/09/15 08:27:49;;;;;;;0.00;0.00;;;;;;;;;;5041848;22;20237;-73
2023/09/15 08:30:16;;;;;;;0.95;0.95;;;;;;;;;;5021870;28;20132;-71
2023/09/15 08:32:44;;;;;;;0.13;0.13;;;;;;;;;;5023660;28;20053;-73
2023/09/15 08:35:12;;;;;;;5.07;4.72;;;;;;;;;;5015560;28;20049;-71
2023/09/15 08:37:40;;;;;;;0.38;0.20;;;;;;;;;;5003152;28;20058;-72
2023/09/15 08:40:07;;;;;;;0.10;0.10;;;;;;;;;;5005348;28;20069;-73
2023/09/15 08:42:35;;;;;;;0.00;0.00;;;;;;;;;;5003230;28;20050;-72
2023/09/15 08:45:07;;;;;;;0.10;0.10;;;;;;;;;;5004163;28;20046;-72
2023/09/15 08:47:38;;;;;;;0.10;0.10;;;;;;;;;;5002708;28;20137;-72
2023/09/15 08:50:06;;;;;;;0.20;0.20;;;;;;;;;;5005067;28;20416;-73
2023/09/15 08:52:35;;;;;;;0.20;0.20;;;;;;;;;;5006774;28;20054;-72
2023/09/15 08:55:03;;;;;;;0.03;0.03;;;;;;;;;;5003927;28;20431;-71
2023/09/15 08:57:31;;;;;;;0.52;0.38;;;;;;;;;;5004666;28;20073;-72
2023/09/15 08:59:59;;;;;;;0.10;0.10;;;;;;;;;;5001892;28;20513;-73
2023/09/15 09:02:28;;;;;;;0.03;0.03;;;;;;;;;;5008107;28;20111;-72
2023/09/15 09:04:58;;;;;;;0.10;0.10;;;;;;;;;;5004522;28;20077;-71
2023/09/15 09:07:27;;;;;;;0.17;0.17;;;;;;;;;;5007223;28;20041;-72
2023/09/15 09:09:54;;;;;;;0.10;0.10;;;;;;;;;;5007018;28;20045;-72
2023/09/15 09:12:22;;;;;;;0.00;0.00;;;;;;;;;;5005165;28;20049;-74
2023/09/15 09:14:54;;;;;;;0.03;0.03;;;;;;;;;;5005365;28;20057;-73
2023/09/15 09:17:23;;;;;;;0.28;0.28;;;;;;;;;;5003349;28;20059;-72
2023/09/15 09:19:51;;;;;;;42.90;39.65;;;;;;;;;;5001430;28;20412;-72
2023/09/15 09:22:19;;;;;;;0.00;0.00;;;;;;;;;;5014661;28;20140;-74
2023/09/15 09:24:53;;;;;;;0.00;0.00;;;;;;;;;;5004776;28;20046;-74
2023/09/15 09:27:21;;;;;;;0.00;0.00;;;;;;;;;;4997245;28;20140;-73
2023/09/15 09:29:48;;;;;;;0.00;0.00;;;;;;;;;;5002680;28;20050;-73
2023/09/15 09:32:16;;;;;;;111.85;104.22;;;;;;;;;;5002383;28;20053;-74
2023/09/15 09:34:48;;;;;;;0.00;0.00;;;;;;;;;;5004325;28;20124;-73
2023/09/15 09:37:25;;;;;;;0.10;0.10;;;;;;;;;;4999448;28;20476;-73
2023/09/15 09:39:53;;;;;;;;;;;;;;;;;;5004396;28;20419;-73
2023/09/15 09:42:23;;;;;;;0.10;0.10;;;;;;;;;;5005099;28;19921;-74
2023/09/15 09:44:52;;;;;;;24.65;22.73;;;;;;;;;;5003113;28;20069;-72
2023/09/15 09:47:21;;;;;;;42.08;39.40;;;;;;;;;;4999608;28;20046;-74
2023/09/15 09:49:51;;;;;;;0.10;0.10;;;;;;;;;;5001226;28;20069;-73
2023/09/15 09:52:19;;;;;;;0.10;0.10;;;;;;;;;;5000826;28;20065;-72
2023/09/15 09:54:50;;;;;;;0.60;0.35;;;;;;;;;;5003679;28;20077;-73
2023/09/15 09:57:17;;;;;;;0.00;0.00;;;;;;;;;;5005852;28;20540;-72
2023/09/15 09:59:45;;;;;;;0.10;0.10;;;;;;;;;;5002803;28;20547;-73
2023/09/15 10:02:13;;;;;;;10.98;10.32;;;;;;;;;;5003287;28;20050;-73
2023/09/15 10:04:41;;;;;;;0.65;0.15;;;;;;;;;;5002879;28;20480;-72
2023/09/15 10:07:08;;;;;;;0.43;0.38;;;;;;;;;;5006440;28;20046;-73
2023/09/15 10:09:36;;;;;;;0.00;0.00;;;;;;;;;;5003892;28;20058;-72
2023/09/15 10:12:04;;;;;;;0.20;0.20;;;;;;;;;;5005422;28;20558;-72
2023/09/15 10:14:32;;;;;;;0.32;0.32;;;;;;;;;;5004278;28;20066;-73
2023/09/15 10:17:01;;;;;;;0.20;0.20;;;;;;;;;;5003672;28;20046;-73
2023/09/15 10:19:29;;;;;;;0.08;0.08;;;;;;;;;;5001301;28;20068;-73
2023/09/15 10:21:57;;;;;;;10.75;10.05;;;;;;;;;;5007659;28;20116;-73
2023/09/15 10:24:27;;;;;;;6.93;6.40;;;;;;;;;;5010902;28;20050;-73
2023/09/15 10:26:54;;;;;;;0.40;0.20;;;;;;;;;;5003741;28;20049;-72
2023/09/15 10:29:22;;;;;;;0.05;0.05;;;;;;;;;;5001070;28;20050;-71
2023/09/15 10:31:49;;;;;;;0.00;0.00;;;;;;;;;;5000675;28;20388;-72
2023/09/15 10:34:17;;;;;;;0.30;0.30;;;;;;;;;;5016986;28;20061;-73
2023/09/15 10:36:45;;;;;;;0.00;0.00;;;;;;;;;;5003013;28;20045;-73
2023/09/15 10:39:17;;;;;;;0.13;0.13;;;;;;;;;;5007954;28;20049;-74
2023/09/15 10:41:44;;;;;;;0.20;0.20;;;;;;;;;;5008933;28;20133;-71
2023/09/15 10:44:13;;;;;;;0.20;0.20;;;;;;;;;;5001603;28;20076;-72
2023/09/15 10:46:42;;;;;;;0.77;0.40;;;;;;;;;;5004516;28;20062;-72
2023/09/15 10:49:17;;;;;;;0.00;0.00;;;;;;;;;;5002289;28;20583;-73
2023/09/15 10:51:58;;;;;;;0.17;0.10;;;;;;;;;;5003136;28;20092;-72
2023/09/15 10:54:27;;;;;;;0.03;0.03;;;;;;;;;;5002436;28;20054;-72
2023/09/15 10:56:55;;;;;;;0.10;0.10;;;;;;;;;;5004887;28;20503;-71
2023/09/15 10:59:22;;;;;;;5.93;5.63;;;;;;;;;;5002874;28;20443;-73
2023/09/15 11:01:50;;;;;;;2.63;2.53;;;;;;;;;;5003034;28;20046;-73
2023/09/15 11:04:20;;;;;;;0.10;0.00;;;;;;;;;;4993707;28;20077;-72
2023/09/15 11:06:49;;;;;;;0.00;0.00;;;;;;;;;;5012426;28;20447;-73
2023/09/15 11:09:17;;;;;;;0.20;0.10;;;;;;;;;;4992653;28;20324;-72
2023/09/15 11:11:45;;;;;;;1.45;1.38;;;;;;;;;;5006372;28;20447;-73
2023/09/15 11:14:13;;;;;;;0.15;0.13;;;;;;;;;;5000873;28;20495;-72
2023/09/15 11:16:42;;;;;;;0.30;0.30;;;;;;;;;;5006317;28;20050;-72
2023/09/15 11:19:11;;;;;;;118.65;108.10;;;;;;;;;;5007794;28;20050;-73
2023/09/15 11:21:42;;;;;;;0.17;0.17;;;;;;;;;;5003959;28;20054;-71
2023/09/15 11:24:10;;;;;;;45.13;38.17;;;;;;;;;;4998366;28;20054;-71
2023/09/15 11:26:45;;;;;;;0.20;0.20;;;;;;;;;;5007865;28;20418;-72
2023/09/15 11:29:14;;;;;;;6.65;6.22;;;;;;;;;;5012300;28;20133;-72
2023/09/15 11:31:41;;;;;;;0.17;0.17;;;;;;;;;;5009331;28;20115;-72
2023/09/15 11:34:09;;;;;;;0.30;0.30;;;;;;;;;;5008687;28;20064;-73
2023/09/15 11:36:38;;;;;;;0.05;0.05;;;;;;;;;;5005785;28;20045;-72
2023/09/15 11:39:12;;;;;;;0.22;0.22;;;;;;;;;;5005743;28;20049;-73
2023/09/15 11:41:40;;;;;;;0.10;0.00;;;;;;;;;;5004815;28;20064;-72
2023/09/15 11:44:08;;;;;;;0.30;0.30;;;;;;;;;;5005513;28;20124;-73
2023/09/15 11:46:38;;;;;;;0.10;0.10;;;;;;;;;;5002784;28;20909;-72
2023/09/15 11:49:06;;;;;;;0.00;0.00;;;;;;;;;;4992116;28;21003;-72
2023/09/15 11:51:36;;;;;;;0.10;0.10;;;;;;;;;;4994340;28;20054;-72
2023/09/15 11:54:04;;;;;;;0.00;0.00;;;;;;;;;;4997444;28;20077;-74
2023/09/15 11:56:32;;;;;;;0.00;0.00;;;;;;;;;;5004128;28;20052;-73
2023/09/15 11:59:00;;;;;;;8.43;8.00;;;;;;;;;;5002839;28;20132;-72
2023/09/15 12:01:28;;;;;;;0.13;0.13;;;;;;;;;;5002498;28;20057;-73
2023/09/15 12:03:56;;;;;;;0.00;0.00;;;;;;;;;;5006839;28;20056;-72
2023/09/15 12:06:24;;;;;;;0.10;0.10;;;;;;;;;;5005999;28;20042;-73
2023/09/15 12:08:52;;;;;;;0.20;0.20;;;;;;;;;;5005779;28;20046;-73
2023/09/15 12:11:20;;;;;;;4.10;3.90;;;;;;;;;;5005902;28;20400;-72
2023/09/15 12:13:51;;;;;;;0.10;0.00;;;;;;;;;;5005524;28;20045;-72
2023/09/15 12:16:19;;;;;;;0.52;0.52;;;;;;;;;;5005592;28;20045;-72
2023/09/15 12:18:48;;;;;;;0.08;0.08;;;;;;;;;;5005591;28;20057;-73
2023/09/15 12:21:16;;;;;;;0.60;0.52;;;;;;;;;;5005089;28;20050;-71
2023/09/15 12:23:44;;;;;;;3.83;0.77;;;;;;;;;;5006547;28;20071;-73
2023/09/15 12:26:12;;;;;;;0.40;0.40;;;;;;;;;;5006969;28;20118;-71
2023/09/15 12:28:42;;;;;;;0.40;0.30;;;;;;;;;;5004257;28;20042;-73
2023/09/15 12:31:22;;;;;;;0.20;0.20;;;;;;;;;;5007366;28;20060;-73
2023/09/15 12:33:54;;;;;;;0.40;0.40;;;;;;;;;;5005990;28;20053;-72
2023/09/15 12:36:22;;;;;;;0.00;0.00;;;;;;;;;;5006636;28;20419;-73
2023/09/15 12:38:51;;;;;;;3.33;3.13;;;;;;;;;;5005292;28;20042;-71
2023/09/15 12:41:18;;;;;;;0.00;0.00;;;;;;;;;;5004172;28;20054;-72
2023/09/15 12:43:46;;;;;;;0.43;0.43;;;;;;;;;;5006493;28;20366;-73
2023/09/15 12:46:13;;;;;;;0.00;0.00;;;;;;;;;;5005533;28;20074;-70
2023/09/15 12:48:41;;;;;;;0.20;0.20;;;;;;;;;;5005200;28;20045;-71
2023/09/15 12:51:09;;;;;;;0.00;0.00;;;;;;;;;;5006595;28;20058;-72
2023/09/15 12:53:37;;;;;;;0.00;0.00;;;;;;;;;;5005756;28;20052;-71
2023/09/15 12:56:04;;;;;;;0.00;0.00;;;;;;;;;;5001114;28;20052;-72
2023/09/15 12:58:32;;;;;;;0.00;0.00;;;;;;;;;;5001410;28;20526;-73
2023/09/15 13:00:59;;;;;;;0.00;0.00;;;;;;;;;;4999076;28;20125;-72
2023/09/15 13:03:27;;;;;;;0.00;0.00;;;;;;;;;;5004049;28;20508;-72
2023/09/15 13:05:55;;;;;;;0.10;0.10;;;;;;;;;;5002299;28;20715;-73
2023/09/15 13:08:22;;;;;;;0.00;0.00;;;;;;;;;;5004108;28;20469;-72
2023/09/15 13:10:50;;;;;;;0.00;0.00;;;;;;;;;;5003992;28;20530;-72
2023/09/15 13:13:17;;;;;;;0.30;0.30;;;;;;;;;;5002750;28;20534;-72
2023/09/15 13:15:45;;;;;;;0.10;0.10;;;;;;;;;;5002509;28;20063;-72
2023/09/15 13:18:12;;;;;;;0.17;0.17;;;;;;;;;;5003086;28;20077;-71
2023/09/15 13:20:40;;;;;;;2.45;2.35;;;;;;;;;;5001471;28;20673;-72
2023/09/15 13:23:07;;;;;;;0.00;0.00;;;;;;;;;;5003021;28;20057;-72
2023/09/15 13:25:35;;;;;;;0.40;0.40;;;;;;;;;;5000890;28;20041;-73
2023/09/15 13:28:03;;;;;;;2.83;2.72;;;;;;;;;;5006364;28;20049;-71
2023/09/15 13:30:33;;;;;;;0.03;0.03;;;;;;;;;;5004037;28;20107;-72
2023/09/15 13:33:00;;;;;;;0.38;0.30;;;;;;;;;;5005384;28;20073;-73
2023/09/15 13:35:28;;;;;;;0.80;0.35;;;;;;;;;;5001856;28;20042;-72
2023/09/15 13:37:56;;;;;;;0.30;0.30;;;;;;;;;;5004455;28;20046;-72
2023/09/15 13:40:23;;;;;;;0.10;0.10;;;;;;;;;;5004762;28;20080;-74
2023/09/15 13:42:52;;;;;;;0.20;0.20;;;;;;;;;;5004243;28;20512;-71
2023/09/15 13:45:20;;;;;;;0.17;0.17;;;;;;;;;;5005436;28;20535;-73
2023/09/15 13:47:47;;;;;;;0.00;0.00;;;;;;;;;;4995310;28;20277;-72
2023/09/15 13:50:15;;;;;;;0.10;0.10;;;;;;;;;;5004836;28;20046;-73
2023/09/15 13:52:42;;;;;;;1.15;0.17;;;;;;;;;;5002613;28;20439;-72
2023/09/15 13:55:10;;;;;;;0.28;0.28;;;;;;;;;;5004602;28;20046;-72
2023/09/15 13:57:38;;;;;;;0.00;0.00;;;;;;;;;;5004452;28;20895;-72
2023/09/15 14:00:09;;;;;;;0.00;0.00;;;;;;;;;;5004575;28;20046;-71
2023/09/15 14:02:38;;;;;;;0.20;0.20;;;;;;;;;;5000698;28;20053;-72
2023/09/15 14:05:06;;;;;;;0.52;0.50;;;;;;;;;;5004560;28;20115;-72
2023/09/15 14:07:34;;;;;;;0.22;0.22;;;;;;;;;;5002219;28;20508;-72
2023/09/15 14:10:02;;;;;;;0.88;0.88;;;;;;;;;;5004211;28;20045;-72
2023/09/15 14:12:29;;;;;;;0.08;0.08;;;;;;;;;;5004133;28;20414;-73
2023/09/15 14:14:57;;;;;;;0.17;0.17;;;;;;;;;;5004103;28;20045;-72
2023/09/15 14:17:25;;;;;;;0.00;0.00;;;;;;;;;;5005752;28;20054;-72
2023/09/15 14:19:56;;;;;;;0.10;0.10;;;;;;;;;;5003763;28;20519;-72
2023/09/15 14:22:27;;;;;;;0.10;0.10;;;;;;;;;;5002342;28;20064;-72
2023/09/15 14:24:54;;;;;;;0.00;0.00;;;;;;;;;;5001978;28;20167;-72
2023/09/15 14:27:22;;;;;;;0.32;0.20;;;;;;;;;;5030072;23;20104;-76
2023/09/15 14:29:49;;;;;;;0.15;0.15;;;;;;;;;;5003761;28;20104;-76
2023/09/15 14:32:17;;;;;;;0.20;0.20;;;;;;;;;;5001401;28;20048;-76
2023/09/15 14:34:44;;;;;;;0.20;0.20;;;;;;;;;;5010250;28;20053;-76
2023/09/15 14:37:15;;;;;;;0.03;0.03;;;;;;;;;;5003306;28;20071;-77
2023/09/15 14:39:43;;;;;;;0.20;0.20;;;;;;;;;;5003807;28;20344;-76
2023/09/15 14:42:11;;;;;;;0.05;0.05;;;;;;;;;;5007116;28;20113;-77
2023/09/15 14:44:38;;;;;;;0.10;0.10;;;;;;;;;;5007507;28;20046;-77
2023/09/15 14:47:06;;;;;;;0.70;0.70;;;;;;;;;;5008408;28;20426;-75
2023/09/15 14:49:34;;;;;;;0.00;0.00;;;;;;;;;;5005137;28;20061;-79